sensor_id;sensor_type;location;lat;lon;timestamp;temperature;humidity
45693;DHT22;31402;44.752;-0.374;2022-11-21T00:00:39;11.40;99.90
45693;DHT22;31402;44.752;-0.374;2022-11-21T00:03:05;11.40;99.90
45693;DHT22;31402;44.752;-0.374;2022-11-21T00:05:32;11.40;99.90
45693;DHT22;31402;44.752;-0.374;2022-11-21T00:07:58;11.50;99.90
45693;DHT22;31402;44.752;-0.374;2022-11-21T00:10:25;11.50;99.90
45693;DHT22;31402;44.752;-0.374;2022-11-21T00:12:55;11.50;99.90
45693;DHT22;31402;44.752;-0.374;2022-11-21T00:15:22;11.50;99.90
45693;DHT22;31402;44.752;-0.374;2022-11-21T00:17:48;11.40;99.90
45693;DHT22;31402;44.752;-0.374;2022-11-21T00:20:14;11.40;99.90
45693;DHT22;31402;44.752;-0.374;2022-11-21T00:22:40;11.40;99.90
45693;DHT22;31402;44.752;-0.374;2022-11-21T00:25:06;11.40;99.90
45693;DHT22;31402;44.752;-0.374;2022-11-21T00:27:32;11.40;99.90
45693;DHT22;31402;44.752;-0.374;2022-11-21T00:29:58;11.60;99.90
45693;DHT22;31402;44.752;-0.374;2022-11-21T00:32:24;11.60;99.90
45693;DHT22;31402;44.752;-0.374;2022-11-21T00:34:49;11.60;99.90
45693;DHT22;31402;44.752;-0.374;2022-11-21T00:37:15;11.60;99.90
45693;DHT22;31402;44.752;-0.374;2022-11-21T00:39:41;11.50;99.90
45693;DHT22;31402;44.752;-0.374;2022-11-21T00:42:07;11.50;99.90
45693;DHT22;31402;44.752;-0.374;2022-11-21T00:44:32;11.40;99.90
45693;DHT22;31402;44.752;-0.374;2022-11-21T00:46:58;11.40;99.90
45693;DHT22;31402;44.752;-0.374;2022-11-21T00:49:24;11.40;99.90
45693;DHT22;31402;44.752;-0.374;2022-11-21T00:51:50;11.40;99.90
45693;DHT22;31402;44.752;-0.374;2022-11-21T00:54:15;11.40;99.90
45693;DHT22;31402;44.752;-0.374;2022-11-21T00:56:41;11.40;99.90
45693;DHT22;31402;44.752;-0.374;2022-11-21T00:59:07;11.40;99.90
45693;DHT22;31402;44.752;-0.374;2022-11-21T01:01:33;11.40;99.90
45693;DHT22;31402;44.752;-0.374;2022-11-21T01:03:58;11.40;99.90
45693;DHT22;31402;44.752;-0.374;2022-11-21T01:06:24;11.30;99.90
45693;DHT22;31402;44.752;-0.374;2022-11-21T01:08:50;11.30;99.90
45693;DHT22;31402;44.752;-0.374;2022-11-21T01:11:18;11.20;99.90
45693;DHT22;31402;44.752;-0.374;2022-11-21T01:13:44;11.20;99.90
45693;DHT22;31402;44.752;-0.374;2022-11-21T01:16:13;11.20;99.90
45693;DHT22;31402;44.752;-0.374;2022-11-21T01:18:39;11.20;99.90
45693;DHT22;31402;44.752;-0.374;2022-11-21T01:23:44;11.10;99.90
45693;DHT22;31402;44.752;-0.374;2022-11-21T01:26:18;11.10;99.90
45693;DHT22;31402;44.752;-0.374;2022-11-21T01:28:44;11.10;99.90
45693;DHT22;31402;44.752;-0.374;2022-11-21T01:31:18;11.10;99.90
45693;DHT22;31402;44.752;-0.374;2022-11-21T01:33:45;11.10;99.90
45693;DHT22;31402;44.752;-0.374;2022-11-21T01:38:41;11.10;99.90
45693;DHT22;31402;44.752;-0.374;2022-11-21T01:41:07;11.10;99.90
45693;DHT22;31402;44.752;-0.374;2022-11-21T01:43:33;11.10;99.90
45693;DHT22;31402;44.752;-0.374;2022-11-21T01:48:31;11.10;99.90
45693;DHT22;31402;44.752;-0.374;2022-11-21T01:51:06;11.10;99.90
45693;DHT22;31402;44.752;-0.374;2022-11-21T01:53:34;11.10;99.90
45693;DHT22;31402;44.752;-0.374;2022-11-21T01:56:00;11.00;99.90
45693;DHT22;31402;44.752;-0.374;2022-11-21T01:58:27;11.00;99.90
45693;DHT22;31402;44.752;-0.374;2022-11-21T02:00:53;11.00;99.90
45693;DHT22;31402;44.752;-0.374;2022-11-21T02:03:22;11.00;99.90
45693;DHT22;31402;44.752;-0.374;2022-11-21T02:05:48;11.10;99.90
45693;DHT22;31402;44.752;-0.374;2022-11-21T02:08:17;11.10;99.90
45693;DHT22;31402;44.752;-0.374;2022-11-21T02:10:53;11.10;99.90
45693;DHT22;31402;44.752;-0.374;2022-11-21T02:13:21;11.10;99.90
45693;DHT22;31402;44.752;-0.374;2022-11-21T02:15:47;11.10;99.90
45693;DHT22;31402;44.752;-0.374;2022-11-21T02:18:13;11.10;99.90
45693;DHT22;31402;44.752;-0.374;2022-11-21T02:20:40;11.10;99.90
45693;DHT22;31402;44.752;-0.374;2022-11-21T02:23:26;11.10;99.90
45693;DHT22;31402;44.752;-0.374;2022-11-21T02:25:54;11.10;99.90
45693;DHT22;31402;44.752;-0.374;2022-11-21T02:28:21;11.10;99.90
45693;DHT22;31402;44.752;-0.374;2022-11-21T02:30:51;11.10;99.90
45693;DHT22;31402;44.752;-0.374;2022-11-21T02:33:17;11.10;99.90
45693;DHT22;31402;44.752;-0.374;2022-11-21T02:35:43;11.10;99.90
45693;DHT22;31402;44.752;-0.374;2022-11-21T02:38:24;11.10;99.90
45693;DHT22;31402;44.752;-0.374;2022-11-21T02:46:05;11.10;99.90
45693;DHT22;31402;44.752;-0.374;2022-11-21T02:48:30;11.10;99.90
45693;DHT22;31402;44.752;-0.374;2022-11-21T02:50:56;11.10;99.90
45693;DHT22;31402;44.752;-0.374;2022-11-21T02:53:22;11.10;99.90
45693;DHT22;31402;44.752;-0.374;2022-11-21T02:55:48;11.10;99.90
45693;DHT22;31402;44.752;-0.374;2022-11-21T02:58:13;11.20;99.90
45693;DHT22;31402;44.752;-0.374;2022-11-21T03:00:41;11.10;99.90
45693;DHT22;31402;44.752;-0.374;2022-11-21T03:03:07;11.20;99.90
45693;DHT22;31402;44.752;-0.374;2022-11-21T03:05:33;11.20;99.90
45693;DHT22;31402;44.752;-0.374;2022-11-21T03:07:58;11.20;99.90
45693;DHT22;31402;44.752;-0.374;2022-11-21T03:10:24;11.20;99.90
45693;DHT22;31402;44.752;-0.374;2022-11-21T03:12:50;11.20;99.90
45693;DHT22;31402;44.752;-0.374;2022-11-21T03:15:25;11.30;99.90
45693;DHT22;31402;44.752;-0.374;2022-11-21T03:17:52;11.30;99.90
45693;DHT22;31402;44.752;-0.374;2022-11-21T03:20:17;11.30;99.90
45693;DHT22;31402;44.752;-0.374;2022-11-21T03:22:43;11.30;99.90
45693;DHT22;31402;44.752;-0.374;2022-11-21T03:25:09;11.40;99.90
45693;DHT22;31402;44.752;-0.374;2022-11-21T03:27:34;11.40;99.90
45693;DHT22;31402;44.752;-0.374;2022-11-21T03:30:00;11.40;99.90
45693;DHT22;31402;44.752;-0.374;2022-11-21T03:32:26;11.30;99.90
45693;DHT22;31402;44.752;-0.374;2022-11-21T03:34:52;11.30;99.90
45693;DHT22;31402;44.752;-0.374;2022-11-21T03:37:18;11.30;99.90
45693;DHT22;31402;44.752;-0.374;2022-11-21T03:39:43;11.30;99.90
45693;DHT22;31402;44.752;-0.374;2022-11-21T03:42:09;11.30;99.90
45693;DHT22;31402;44.752;-0.374;2022-11-21T03:44:35;11.40;99.90
45693;DHT22;31402;44.752;-0.374;2022-11-21T03:47:00;11.40;99.90
45693;DHT22;31402;44.752;-0.374;2022-11-21T03:49:26;11.40;99.90
45693;DHT22;31402;44.752;-0.374;2022-11-21T03:51:52;11.50;99.90
45693;DHT22;31402;44.752;-0.374;2022-11-21T03:54:18;11.40;99.90
45693;DHT22;31402;44.752;-0.374;2022-11-21T03:56:43;11.40;99.90
45693;DHT22;31402;44.752;-0.374;2022-11-21T03:59:09;11.50;99.90
45693;DHT22;31402;44.752;-0.374;2022-11-21T04:01:35;11.50;99.90
45693;DHT22;31402;44.752;-0.374;2022-11-21T04:04:00;11.50;99.90
45693;DHT22;31402;44.752;-0.374;2022-11-21T04:06:26;11.50;99.90
45693;DHT22;31402;44.752;-0.374;2022-11-21T04:08:52;11.40;99.90
45693;DHT22;31402;44.752;-0.374;2022-11-21T04:11:18;11.50;99.90
45693;DHT22;31402;44.752;-0.374;2022-11-21T04:13:46;11.50;99.90
45693;DHT22;31402;44.752;-0.374;2022-11-21T04:16:12;11.50;99.90
45693;DHT22;31402;44.752;-0.374;2022-11-21T04:18:38;11.50;99.90
45693;DHT22;31402;44.752;-0.374;2022-11-21T04:21:05;11.50;99.90
45693;DHT22;31402;44.752;-0.374;2022-11-21T04:23:32;11.40;99.90
45693;DHT22;31402;44.752;-0.374;2022-11-21T04:25:58;11.40;99.90
45693;DHT22;31402;44.752;-0.374;2022-11-21T04:28:23;11.50;99.90
45693;DHT22;31402;44.752;-0.374;2022-11-21T04:30:49;11.60;99.90
45693;DHT22;31402;44.752;-0.374;2022-11-21T04:33:16;11.80;99.90
45693;DHT22;31402;44.752;-0.374;2022-11-21T04:35:42;11.90;99.90
45693;DHT22;31402;44.752;-0.374;2022-11-21T04:38:08;11.90;99.90
45693;DHT22;31402;44.752;-0.374;2022-11-21T04:40:35;11.90;99.90
45693;DHT22;31402;44.752;-0.374;2022-11-21T04:43:01;11.70;99.90
45693;DHT22;31402;44.752;-0.374;2022-11-21T04:45:27;11.70;99.90
45693;DHT22;31402;44.752;-0.374;2022-11-21T04:47:53;11.70;99.90
45693;DHT22;31402;44.752;-0.374;2022-11-21T04:50:19;11.80;99.90
45693;DHT22;31402;44.752;-0.374;2022-11-21T04:52:52;11.80;99.90
45693;DHT22;31402;44.752;-0.374;2022-11-21T04:55:20;11.90;99.90
45693;DHT22;31402;44.752;-0.374;2022-11-21T04:57:46;11.80;99.90
45693;DHT22;31402;44.752;-0.374;2022-11-21T05:00:13;11.80;99.90
45693;DHT22;31402;44.752;-0.374;2022-11-21T05:02:39;11.70;99.90
45693;DHT22;31402;44.752;-0.374;2022-11-21T05:05:05;11.60;99.90
45693;DHT22;31402;44.752;-0.374;2022-11-21T05:07:31;11.50;99.90
45693;DHT22;31402;44.752;-0.374;2022-11-21T05:09:57;11.50;99.90
45693;DHT22;31402;44.752;-0.374;2022-11-21T05:12:23;11.50;99.90
45693;DHT22;31402;44.752;-0.374;2022-11-21T05:15:07;11.50;99.90
45693;DHT22;31402;44.752;-0.374;2022-11-21T05:17:33;11.40;99.90
45693;DHT22;31402;44.752;-0.374;2022-11-21T05:20:00;11.40;99.90
45693;DHT22;31402;44.752;-0.374;2022-11-21T05:22:27;11.40;99.90
45693;DHT22;31402;44.752;-0.374;2022-11-21T05:24:52;11.30;99.90
45693;DHT22;31402;44.752;-0.374;2022-11-21T05:27:18;11.30;99.90
45693;DHT22;31402;44.752;-0.374;2022-11-21T05:29:44;11.40;99.90
45693;DHT22;31402;44.752;-0.374;2022-11-21T05:32:10;11.30;99.90
45693;DHT22;31402;44.752;-0.374;2022-11-21T05:34:36;11.40;99.90
45693;DHT22;31402;44.752;-0.374;2022-11-21T05:37:01;11.40;99.90
45693;DHT22;31402;44.752;-0.374;2022-11-21T05:39:27;11.40;99.90
45693;DHT22;31402;44.752;-0.374;2022-11-21T05:41:53;11.40;99.90
45693;DHT22;31402;44.752;-0.374;2022-11-21T05:44:19;11.30;99.90
45693;DHT22;31402;44.752;-0.374;2022-11-21T05:46:45;11.40;99.90
45693;DHT22;31402;44.752;-0.374;2022-11-21T05:49:10;11.50;99.90
45693;DHT22;31402;44.752;-0.374;2022-11-21T05:51:37;11.50;99.90
45693;DHT22;31402;44.752;-0.374;2022-11-21T05:54:03;11.50;99.90
45693;DHT22;31402;44.752;-0.374;2022-11-21T05:56:29;11.50;99.90
45693;DHT22;31402;44.752;-0.374;2022-11-21T05:58:56;11.60;99.90
45693;DHT22;31402;44.752;-0.374;2022-11-21T06:01:22;11.60;99.90
45693;DHT22;31402;44.752;-0.374;2022-11-21T06:04:07;11.60;99.90
45693;DHT22;31402;44.752;-0.374;2022-11-21T06:06:34;11.60;99.90
45693;DHT22;31402;44.752;-0.374;2022-11-21T06:09:00;11.60;99.90
45693;DHT22;31402;44.752;-0.374;2022-11-21T06:11:26;11.50;99.90
45693;DHT22;31402;44.752;-0.374;2022-11-21T06:13:52;11.50;99.90
45693;DHT22;31402;44.752;-0.374;2022-11-21T06:16:18;11.40;99.90
45693;DHT22;31402;44.752;-0.374;2022-11-21T06:18:46;11.60;99.90
45693;DHT22;31402;44.752;-0.374;2022-11-21T06:23:38;11.80;99.90
45693;DHT22;31402;44.752;-0.374;2022-11-21T06:26:06;11.60;99.90
45693;DHT22;31402;44.752;-0.374;2022-11-21T06:28:36;11.60;99.90
45693;DHT22;31402;44.752;-0.374;2022-11-21T06:31:04;11.70;99.90
45693;DHT22;31402;44.752;-0.374;2022-11-21T06:33:30;11.60;99.90
45693;DHT22;31402;44.752;-0.374;2022-11-21T06:35:56;11.60;99.90
45693;DHT22;31402;44.752;-0.374;2022-11-21T06:38:21;11.50;99.90
45693;DHT22;31402;44.752;-0.374;2022-11-21T06:40:47;11.40;99.90
45693;DHT22;31402;44.752;-0.374;2022-11-21T06:43:13;11.50;99.90
45693;DHT22;31402;44.752;-0.374;2022-11-21T06:45:38;11.50;99.90
45693;DHT22;31402;44.752;-0.374;2022-11-21T06:48:04;11.70;99.90
45693;DHT22;31402;44.752;-0.374;2022-11-21T06:50:30;11.80;99.90
45693;DHT22;31402;44.752;-0.374;2022-11-21T06:52:57;11.70;99.90
45693;DHT22;31402;44.752;-0.374;2022-11-21T06:55:23;11.50;99.90
45693;DHT22;31402;44.752;-0.374;2022-11-21T06:57:50;11.30;99.90
45693;DHT22;31402;44.752;-0.374;2022-11-21T07:00:16;11.30;99.90
45693;DHT22;31402;44.752;-0.374;2022-11-21T07:02:42;11.30;99.90
45693;DHT22;31402;44.752;-0.374;2022-11-21T07:05:08;11.20;99.90
45693;DHT22;31402;44.752;-0.374;2022-11-21T07:07:34;11.20;99.90
45693;DHT22;31402;44.752;-0.374;2022-11-21T07:10:00;11.10;99.90
45693;DHT22;31402;44.752;-0.374;2022-11-21T07:12:25;11.10;99.90
45693;DHT22;31402;44.752;-0.374;2022-11-21T07:15:10;11.10;99.90
45693;DHT22;31402;44.752;-0.374;2022-11-21T07:17:36;11.00;99.90
45693;DHT22;31402;44.752;-0.374;2022-11-21T07:20:02;11.10;99.90
45693;DHT22;31402;44.752;-0.374;2022-11-21T07:22:28;11.10;99.90
45693;DHT22;31402;44.752;-0.374;2022-11-21T07:24:53;11.00;99.90
45693;DHT22;31402;44.752;-0.374;2022-11-21T07:27:19;11.00;99.90
45693;DHT22;31402;44.752;-0.374;2022-11-21T07:29:45;11.10;99.90
45693;DHT22;31402;44.752;-0.374;2022-11-21T07:32:10;11.10;99.90
45693;DHT22;31402;44.752;-0.374;2022-11-21T07:34:36;11.10;99.90
45693;DHT22;31402;44.752;-0.374;2022-11-21T07:37:02;11.10;99.90
45693;DHT22;31402;44.752;-0.374;2022-11-21T07:39:28;11.10;99.90
45693;DHT22;31402;44.752;-0.374;2022-11-21T07:41:54;11.00;99.90
45693;DHT22;31402;44.752;-0.374;2022-11-21T07:44:20;11.00;99.90
45693;DHT22;31402;44.752;-0.374;2022-11-21T07:46:46;11.00;99.90
45693;DHT22;31402;44.752;-0.374;2022-11-21T07:49:11;10.90;99.90
45693;DHT22;31402;44.752;-0.374;2022-11-21T07:51:37;11.00;99.90
45693;DHT22;31402;44.752;-0.374;2022-11-21T07:54:03;11.00;99.90
45693;DHT22;31402;44.752;-0.374;2022-11-21T07:56:29;11.00;99.90
45693;DHT22;31402;44.752;-0.374;2022-11-21T07:58:54;11.00;99.90
45693;DHT22;31402;44.752;-0.374;2022-11-21T08:01:20;11.00;99.90
45693;DHT22;31402;44.752;-0.374;2022-11-21T08:03:46;11.10;99.90
45693;DHT22;31402;44.752;-0.374;2022-11-21T08:06:11;11.10;99.90
45693;DHT22;31402;44.752;-0.374;2022-11-21T08:08:37;11.10;99.90
45693;DHT22;31402;44.752;-0.374;2022-11-21T08:11:04;11.10;99.90
45693;DHT22;31402;44.752;-0.374;2022-11-21T08:13:30;11.00;99.90
45693;DHT22;31402;44.752;-0.374;2022-11-21T08:15:57;11.10;99.90
45693;DHT22;31402;44.752;-0.374;2022-11-21T08:18:22;11.00;99.90
45693;DHT22;31402;44.752;-0.374;2022-11-21T08:20:48;10.90;99.90
45693;DHT22;31402;44.752;-0.374;2022-11-21T08:23:15;10.90;99.90
45693;DHT22;31402;44.752;-0.374;2022-11-21T08:25:42;10.90;99.90
45693;DHT22;31402;44.752;-0.374;2022-11-21T08:28:09;10.90;99.90
45693;DHT22;31402;44.752;-0.374;2022-11-21T08:30:35;10.90;99.90
45693;DHT22;31402;44.752;-0.374;2022-11-21T08:33:02;10.90;99.90
45693;DHT22;31402;44.752;-0.374;2022-11-21T08:35:28;10.90;99.90
45693;DHT22;31402;44.752;-0.374;2022-11-21T08:38:00;10.90;99.90
45693;DHT22;31402;44.752;-0.374;2022-11-21T08:40:28;10.90;99.90
45693;DHT22;31402;44.752;-0.374;2022-11-21T08:43:04;11.00;99.90
45693;DHT22;31402;44.752;-0.374;2022-11-21T08:45:31;11.10;99.90
45693;DHT22;31402;44.752;-0.374;2022-11-21T08:47:58;11.30;99.90
45693;DHT22;31402;44.752;-0.374;2022-11-21T08:50:24;11.10;99.90
45693;DHT22;31402;44.752;-0.374;2022-11-21T08:52:50;11.00;99.90
45693;DHT22;31402;44.752;-0.374;2022-11-21T08:55:16;11.00;99.90
45693;DHT22;31402;44.752;-0.374;2022-11-21T08:57:42;10.90;99.90
45693;DHT22;31402;44.752;-0.374;2022-11-21T09:00:10;10.90;99.90
45693;DHT22;31402;44.752;-0.374;2022-11-21T09:02:38;10.90;99.90
45693;DHT22;31402;44.752;-0.374;2022-11-21T09:05:04;10.90;99.90
45693;DHT22;31402;44.752;-0.374;2022-11-21T09:07:30;10.90;99.90
45693;DHT22;31402;44.752;-0.374;2022-11-21T09:09:56;11.00;99.90
45693;DHT22;31402;44.752;-0.374;2022-11-21T09:12:22;11.00;99.90
45693;DHT22;31402;44.752;-0.374;2022-11-21T09:14:47;11.10;99.90
45693;DHT22;31402;44.752;-0.374;2022-11-21T09:17:32;11.30;99.90
45693;DHT22;31402;44.752;-0.374;2022-11-21T09:20:16;11.40;99.90
45693;DHT22;31402;44.752;-0.374;2022-11-21T09:22:42;11.50;99.90
45693;DHT22;31402;44.752;-0.374;2022-11-21T09:25:07;11.40;99.90
45693;DHT22;31402;44.752;-0.374;2022-11-21T09:27:33;11.40;99.90
45693;DHT22;31402;44.752;-0.374;2022-11-21T09:29:59;11.40;99.90
45693;DHT22;31402;44.752;-0.374;2022-11-21T09:32:25;11.40;99.90
45693;DHT22;31402;44.752;-0.374;2022-11-21T09:34:50;11.50;99.90
45693;DHT22;31402;44.752;-0.374;2022-11-21T09:37:16;11.60;99.90
45693;DHT22;31402;44.752;-0.374;2022-11-21T09:39:42;11.70;99.90
45693;DHT22;31402;44.752;-0.374;2022-11-21T09:44:53;11.70;99.90
45693;DHT22;31402;44.752;-0.374;2022-11-21T09:47:37;11.70;99.90
45693;DHT22;31402;44.752;-0.374;2022-11-21T09:50:24;11.70;99.90
45693;DHT22;31402;44.752;-0.374;2022-11-21T09:56:06;11.80;99.90
45693;DHT22;31402;44.752;-0.374;2022-11-21T09:58:40;11.90;99.90
45693;DHT22;31402;44.752;-0.374;2022-11-21T10:01:11;11.90;99.90
45693;DHT22;31402;44.752;-0.374;2022-11-21T10:03:46;11.90;99.90
45693;DHT22;31402;44.752;-0.374;2022-11-21T10:06:32;12.00;99.90
45693;DHT22;31402;44.752;-0.374;2022-11-21T10:09:17;12.10;99.90
45693;DHT22;31402;44.752;-0.374;2022-11-21T10:26:21;12.60;99.90
45693;DHT22;31402;44.752;-0.374;2022-11-21T10:28:58;12.70;99.90
45693;DHT22;31402;44.752;-0.374;2022-11-21T10:31:27;12.80;99.90
45693;DHT22;31402;44.752;-0.374;2022-11-21T10:33:56;12.80;99.90
45693;DHT22;31402;44.752;-0.374;2022-11-21T10:36:29;13.10;99.90
45693;DHT22;31402;44.752;-0.374;2022-11-21T10:39:02;13.10;99.90
45693;DHT22;31402;44.752;-0.374;2022-11-21T10:41:41;13.10;99.90
45693;DHT22;31402;44.752;-0.374;2022-11-21T10:44:27;13.20;99.90
45693;DHT22;31402;44.752;-0.374;2022-11-21T10:49:39;13.30;99.90
45693;DHT22;31402;44.752;-0.374;2022-11-21T10:52:16;13.40;99.90
45693;DHT22;31402;44.752;-0.374;2022-11-21T10:57:27;13.40;99.90
45693;DHT22;31402;44.752;-0.374;2022-11-21T11:00:02;13.40;99.90
45693;DHT22;31402;44.752;-0.374;2022-11-21T11:02:39;13.40;99.90
45693;DHT22;31402;44.752;-0.374;2022-11-21T11:05:27;13.40;99.90
45693;DHT22;31402;44.752;-0.374;2022-11-21T11:08:09;13.50;99.90
45693;DHT22;31402;44.752;-0.374;2022-11-21T11:10:41;13.50;99.90
45693;DHT22;31402;44.752;-0.374;2022-11-21T11:13:19;13.50;99.90
45693;DHT22;31402;44.752;-0.374;2022-11-21T11:18:31;13.60;99.90
45693;DHT22;31402;44.752;-0.374;2022-11-21T11:21:18;13.70;99.90
45693;DHT22;31402;44.752;-0.374;2022-11-21T11:23:46;13.80;99.90
45693;DHT22;31402;44.752;-0.374;2022-11-21T11:26:27;13.90;99.90
45693;DHT22;31402;44.752;-0.374;2022-11-21T11:29:13;14.10;99.90
45693;DHT22;31402;44.752;-0.374;2022-11-21T11:34:20;14.30;99.90
45693;DHT22;31402;44.752;-0.374;2022-11-21T11:40:03;14.40;99.90
45693;DHT22;31402;44.752;-0.374;2022-11-21T11:46:12;14.50;99.90
45693;DHT22;31402;44.752;-0.374;2022-11-21T11:49:04;14.60;99.90
45693;DHT22;31402;44.752;-0.374;2022-11-21T11:51:40;14.60;99.90
45693;DHT22;31402;44.752;-0.374;2022-11-21T11:56:41;14.70;99.90
45693;DHT22;31402;44.752;-0.374;2022-11-21T12:04:42;14.80;99.90
45693;DHT22;31402;44.752;-0.374;2022-11-21T12:07:40;14.90;99.90
45693;DHT22;31402;44.752;-0.374;2022-11-21T12:10:25;14.90;99.90
45693;DHT22;31402;44.752;-0.374;2022-11-21T12:13:05;14.90;99.90
45693;DHT22;31402;44.752;-0.374;2022-11-21T12:15:45;15.00;99.90
45693;DHT22;31402;44.752;-0.374;2022-11-21T12:23:37;15.00;99.90
45693;DHT22;31402;44.752;-0.374;2022-11-21T12:31:36;15.00;99.90
45693;DHT22;31402;44.752;-0.374;2022-11-21T12:34:13;15.00;99.90
45693;DHT22;31402;44.752;-0.374;2022-11-21T12:36:49;15.00;99.90
45693;DHT22;31402;44.752;-0.374;2022-11-21T12:45:32;15.00;99.90
45693;DHT22;31402;44.752;-0.374;2022-11-21T12:59:26;14.70;99.90
45693;DHT22;31402;44.752;-0.374;2022-11-21T13:02:20;14.80;99.90
45693;DHT22;31402;44.752;-0.374;2022-11-21T13:04:49;14.80;99.90
45693;DHT22;31402;44.752;-0.374;2022-11-21T13:07:16;14.80;99.90
45693;DHT22;31402;44.752;-0.374;2022-11-21T13:09:50;14.80;99.90
45693;DHT22;31402;44.752;-0.374;2022-11-21T13:15:27;14.70;99.90
45693;DHT22;31402;44.752;-0.374;2022-11-21T13:17:57;14.70;99.90
45693;DHT22;31402;44.752;-0.374;2022-11-21T13:22:59;14.70;99.90
45693;DHT22;31402;44.752;-0.374;2022-11-21T13:30:50;14.90;99.90
45693;DHT22;31402;44.752;-0.374;2022-11-21T13:36:10;14.90;99.90
45693;DHT22;31402;44.752;-0.374;2022-11-21T14:00:35;14.80;99.90
45693;DHT22;31402;44.752;-0.374;2022-11-21T14:06:21;14.70;99.90
45693;DHT22;31402;44.752;-0.374;2022-11-21T14:11:52;14.70;99.90
45693;DHT22;31402;44.752;-0.374;2022-11-21T14:14:48;14.80;99.90
45693;DHT22;31402;44.752;-0.374;2022-11-21T14:17:54;14.70;99.90
45693;DHT22;31402;44.752;-0.374;2022-11-21T14:20:27;14.50;99.90
45693;DHT22;31402;44.752;-0.374;2022-11-21T14:23:16;14.50;99.90
45693;DHT22;31402;44.752;-0.374;2022-11-21T14:25:48;14.50;99.90
45693;DHT22;31402;44.752;-0.374;2022-11-21T14:28:24;14.60;99.90
45693;DHT22;31402;44.752;-0.374;2022-11-21T14:31:03;14.60;99.90
45693;DHT22;31402;44.752;-0.374;2022-11-21T14:33:36;14.60;99.90
45693;DHT22;31402;44.752;-0.374;2022-11-21T14:36:06;14.50;99.90
45693;DHT22;31402;44.752;-0.374;2022-11-21T14:38:44;14.50;99.90
45693;DHT22;31402;44.752;-0.374;2022-11-21T14:41:33;14.40;99.90
45693;DHT22;31402;44.752;-0.374;2022-11-21T14:44:00;14.40;99.90
45693;DHT22;31402;44.752;-0.374;2022-11-21T14:46:34;14.40;99.90
45693;DHT22;31402;44.752;-0.374;2022-11-21T14:54:22;14.40;99.90
45693;DHT22;31402;44.752;-0.374;2022-11-21T14:57:00;14.40;99.90
45693;DHT22;31402;44.752;-0.374;2022-11-21T14:59:37;14.20;99.90
45693;DHT22;31402;44.752;-0.374;2022-11-21T15:04:36;14.10;99.90
45693;DHT22;31402;44.752;-0.374;2022-11-21T15:07:03;13.90;99.90
45693;DHT22;31402;44.752;-0.374;2022-11-21T15:09:29;13.80;99.90
45693;DHT22;31402;44.752;-0.374;2022-11-21T15:11:59;13.80;99.90
45693;DHT22;31402;44.752;-0.374;2022-11-21T15:14:37;13.80;99.90
45693;DHT22;31402;44.752;-0.374;2022-11-21T15:17:09;13.80;99.90
45693;DHT22;31402;44.752;-0.374;2022-11-21T15:19:37;13.80;99.90
45693;DHT22;31402;44.752;-0.374;2022-11-21T15:22:03;13.80;99.90
45693;DHT22;31402;44.752;-0.374;2022-11-21T15:27:29;13.70;99.90
45693;DHT22;31402;44.752;-0.374;2022-11-21T15:33:01;13.80;99.90
45693;DHT22;31402;44.752;-0.374;2022-11-21T15:37:59;13.80;99.90
45693;DHT22;31402;44.752;-0.374;2022-11-21T15:40:25;13.80;99.90
45693;DHT22;31402;44.752;-0.374;2022-11-21T15:42:50;13.80;99.90
45693;DHT22;31402;44.752;-0.374;2022-11-21T15:47:42;13.80;99.90
45693;DHT22;31402;44.752;-0.374;2022-11-21T15:50:08;13.80;99.90
45693;DHT22;31402;44.752;-0.374;2022-11-21T15:52:47;13.70;99.90
45693;DHT22;31402;44.752;-0.374;2022-11-21T15:55:24;13.80;99.90
45693;DHT22;31402;44.752;-0.374;2022-11-21T15:57:50;13.80;99.90
45693;DHT22;31402;44.752;-0.374;2022-11-21T16:00:16;13.60;99.90
45693;DHT22;31402;44.752;-0.374;2022-11-21T16:02:42;13.70;99.90
45693;DHT22;31402;44.752;-0.374;2022-11-21T16:05:12;13.70;99.90
45693;DHT22;31402;44.752;-0.374;2022-11-21T16:07:39;13.80;99.90
45693;DHT22;31402;44.752;-0.374;2022-11-21T16:10:05;13.80;99.90
45693;DHT22;31402;44.752;-0.374;2022-11-21T16:12:31;13.80;99.90
45693;DHT22;31402;44.752;-0.374;2022-11-21T16:14:56;13.70;99.90
45693;DHT22;31402;44.752;-0.374;2022-11-21T16:17:22;13.60;99.90
45693;DHT22;31402;44.752;-0.374;2022-11-21T16:19:48;13.50;99.90
45693;DHT22;31402;44.752;-0.374;2022-11-21T16:22:14;13.40;99.90
45693;DHT22;31402;44.752;-0.374;2022-11-21T16:24:41;13.40;99.90
45693;DHT22;31402;44.752;-0.374;2022-11-21T16:27:07;13.40;99.90
45693;DHT22;31402;44.752;-0.374;2022-11-21T16:29:33;13.40;99.90
45693;DHT22;31402;44.752;-0.374;2022-11-21T16:31:58;13.40;99.90
45693;DHT22;31402;44.752;-0.374;2022-11-21T16:34:25;13.40;99.90
45693;DHT22;31402;44.752;-0.374;2022-11-21T16:36:51;13.40;99.90
45693;DHT22;31402;44.752;-0.374;2022-11-21T16:39:17;13.40;99.90
45693;DHT22;31402;44.752;-0.374;2022-11-21T16:41:43;13.40;99.90
45693;DHT22;31402;44.752;-0.374;2022-11-21T16:44:13;13.40;99.90
45693;DHT22;31402;44.752;-0.374;2022-11-21T16:46:44;13.30;99.90
45693;DHT22;31402;44.752;-0.374;2022-11-21T16:49:11;13.30;99.90
45693;DHT22;31402;44.752;-0.374;2022-11-21T16:51:37;13.20;99.90
45693;DHT22;31402;44.752;-0.374;2022-11-21T16:54:03;13.30;99.90
45693;DHT22;31402;44.752;-0.374;2022-11-21T16:56:28;13.20;99.90
45693;DHT22;31402;44.752;-0.374;2022-11-21T16:58:54;13.20;99.90
45693;DHT22;31402;44.752;-0.374;2022-11-21T17:01:25;13.20;99.90
45693;DHT22;31402;44.752;-0.374;2022-11-21T17:03:51;13.20;99.90
45693;DHT22;31402;44.752;-0.374;2022-11-21T17:06:22;13.20;99.90
45693;DHT22;31402;44.752;-0.374;2022-11-21T17:08:49;13.20;99.90
45693;DHT22;31402;44.752;-0.374;2022-11-21T17:11:17;13.10;99.90
45693;DHT22;31402;44.752;-0.374;2022-11-21T17:13:45;13.20;99.90
45693;DHT22;31402;44.752;-0.374;2022-11-21T17:16:12;13.30;99.90
45693;DHT22;31402;44.752;-0.374;2022-11-21T17:18:39;13.20;99.90
45693;DHT22;31402;44.752;-0.374;2022-11-21T17:21:06;13.20;99.90
45693;DHT22;31402;44.752;-0.374;2022-11-21T17:23:34;13.20;99.90
45693;DHT22;31402;44.752;-0.374;2022-11-21T17:26:03;13.20;99.90
45693;DHT22;31402;44.752;-0.374;2022-11-21T17:28:30;13.10;99.90
45693;DHT22;31402;44.752;-0.374;2022-11-21T17:30:56;13.10;99.90
45693;DHT22;31402;44.752;-0.374;2022-11-21T17:33:22;13.00;99.90
45693;DHT22;31402;44.752;-0.374;2022-11-21T17:35:48;13.00;99.90
45693;DHT22;31402;44.752;-0.374;2022-11-21T17:38:14;13.00;99.90
45693;DHT22;31402;44.752;-0.374;2022-11-21T17:40:40;12.90;99.90
45693;DHT22;31402;44.752;-0.374;2022-11-21T17:43:05;13.00;99.90
45693;DHT22;31402;44.752;-0.374;2022-11-21T17:45:34;13.00;99.90
45693;DHT22;31402;44.752;-0.374;2022-11-21T17:48:00;13.00;99.90
45693;DHT22;31402;44.752;-0.374;2022-11-21T17:50:26;13.00;99.90
45693;DHT22;31402;44.752;-0.374;2022-11-21T17:52:51;12.90;99.90
45693;DHT22;31402;44.752;-0.374;2022-11-21T17:55:18;12.70;99.90